Weather at Carlos Prates Airport

Public forecast

Using degrees Celsius for public forecast. Weather courtesy of forecast.io.

Current aviation weather report (METAR) for Carlos Prates Airport

Retrieved 2020/10/29 15:00 UTC (1 hour ago):

SBPR 291500Z 30008KT CAVOK 32/18 Q1016

Closest aviation forecast (TAF) to Carlos Prates Airport

Forecast is more than 12 hours old.

Closest forecast is Pampulha - Carlos Drummond de Andrade Airport, 4.2 nm (7.7 km) NNE. Retrieved 2012/03/26 18:12 UTC (9 years ago):

TAF SBBH 261639Z 2618/2706 09005KT 9999 SCT030 TX28/2618Z TN20/2705Z PROB30 2619/2624 8000 TSRA BKN035 FEW045CB RMK PGG